createdAt,value
2017-03-20T00:00:50.194Z,946.45
2017-03-20T00:01:50.185Z,946.45
2017-03-20T00:02:50.174Z,946.44
2017-03-20T00:03:50.164Z,946.41
2017-03-20T00:04:50.156Z,946.35
2017-03-20T00:05:50.145Z,946.39
2017-03-20T00:06:50.137Z,946.34
2017-03-20T00:07:50.126Z,946.33
2017-03-20T00:08:50.118Z,946.37
2017-03-20T00:09:50.107Z,946.38
2017-03-20T00:10:50.097Z,946.35
2017-03-20T00:11:50.087Z,946.36
2017-03-20T00:12:50.079Z,946.3
2017-03-20T00:13:50.068Z,946.35
2017-03-20T00:14:50.059Z,946.33
2017-03-20T00:15:50.049Z,946.32
2017-03-20T00:16:50.039Z,946.33
2017-03-20T00:17:50.029Z,946.37
2017-03-20T00:18:50.020Z,946.34
2017-03-20T00:19:50.010Z,946.37
2017-03-20T00:20:49.999Z,946.39
2017-03-20T00:21:49.990Z,946.4
2017-03-20T00:22:49.980Z,946.34
2017-03-20T00:23:49.971Z,946.36
2017-03-20T00:24:49.960Z,946.35
2017-03-20T00:25:49.950Z,946.38
2017-03-20T00:26:49.941Z,946.42
2017-03-20T00:27:49.931Z,946.45
2017-03-20T00:28:49.922Z,946.39
2017-03-20T00:29:49.912Z,946.43
2017-03-20T00:30:49.903Z,946.45
2017-03-20T00:31:49.892Z,946.49
2017-03-20T00:32:49.882Z,946.49
2017-03-20T00:33:49.874Z,946.48
2017-03-20T00:34:49.862Z,946.58
2017-03-20T00:35:49.851Z,946.54
2017-03-20T00:36:49.843Z,946.56
2017-03-20T00:37:49.834Z,946.55
2017-03-20T00:38:49.823Z,946.54
2017-03-20T00:39:49.816Z,946.56
2017-03-20T00:40:49.803Z,946.55
2017-03-20T00:41:49.795Z,946.59
2017-03-20T00:42:49.785Z,946.53
2017-03-20T00:43:49.774Z,946.53
2017-03-20T00:44:49.765Z,946.59
2017-03-20T00:45:49.755Z,946.55
2017-03-20T00:46:49.744Z,946.56
2017-03-20T00:47:49.733Z,946.55
2017-03-20T00:48:49.725Z,946.55
2017-03-20T00:49:49.714Z,946.59
2017-03-20T00:50:49.709Z,946.6
2017-03-20T00:51:49.694Z,946.55
2017-03-20T00:52:49.686Z,946.58
2017-03-20T00:53:49.677Z,946.61
2017-03-20T00:54:49.665Z,946.63
2017-03-20T00:55:49.655Z,946.71
2017-03-20T00:56:49.644Z,946.7
2017-03-20T00:57:49.635Z,946.71
2017-03-20T00:58:49.626Z,946.71
2017-03-20T00:59:49.621Z,946.7
2017-03-20T01:00:49.605Z,946.66
2017-03-20T01:01:49.599Z,946.63
2017-03-20T01:02:49.586Z,946.65
2017-03-20T01:03:49.576Z,946.67
2017-03-20T01:04:49.570Z,946.66
2017-03-20T01:05:49.555Z,946.65
2017-03-20T01:06:49.548Z,946.68
2017-03-20T01:07:49.535Z,946.64
2017-03-20T01:08:49.526Z,946.65
2017-03-20T01:09:49.515Z,946.63
2017-03-20T01:10:49.505Z,946.55
2017-03-20T01:11:49.493Z,946.64
2017-03-20T01:12:49.486Z,946.64
2017-03-20T01:13:49.475Z,946.64
2017-03-20T01:14:49.466Z,946.64
2017-03-20T01:15:49.455Z,946.57
2017-03-20T01:16:49.444Z,946.56
2017-03-20T01:17:49.434Z,946.54
2017-03-20T01:18:49.424Z,946.5
2017-03-20T01:19:49.417Z,946.53
2017-03-20T01:20:49.403Z,946.48
2017-03-20T01:21:49.393Z,946.48
2017-03-20T01:22:49.384Z,946.46
2017-03-20T01:23:49.374Z,946.48
2017-03-20T01:24:49.364Z,946.48
2017-03-20T01:25:49.353Z,946.39
2017-03-20T01:26:49.341Z,946.41
2017-03-20T01:27:49.333Z,946.32
2017-03-20T01:28:49.322Z,946.32
2017-03-20T01:29:49.311Z,946.33
2017-03-20T01:30:49.302Z,946.35
2017-03-20T01:31:49.292Z,946.37
2017-03-20T01:32:49.282Z,946.41
2017-03-20T01:33:49.271Z,946.38
2017-03-20T01:34:49.261Z,946.38
2017-03-20T01:35:49.250Z,946.44
2017-03-20T01:36:49.241Z,946.39
2017-03-20T01:37:49.228Z,946.38
2017-03-20T01:38:49.223Z,946.41
2017-03-20T01:39:49.209Z,946.38
2017-03-20T01:40:49.199Z,946.41
2017-03-20T01:41:49.188Z,946.4
2017-03-20T01:42:49.178Z,946.39
2017-03-20T01:43:49.168Z,946.39
2017-03-20T01:44:49.160Z,946.42
2017-03-20T01:45:49.145Z,946.44
2017-03-20T01:46:49.137Z,946.45
2017-03-20T01:47:49.126Z,946.41
2017-03-20T01:48:49.116Z,946.47
2017-03-20T01:49:49.105Z,946.49
2017-03-20T01:50:49.096Z,946.52
2017-03-20T01:51:49.082Z,946.49
2017-03-20T01:52:49.073Z,946.54
2017-03-20T01:53:49.063Z,946.52
2017-03-20T01:54:49.053Z,946.6
2017-03-20T01:55:49.041Z,946.56
2017-03-20T01:56:49.029Z,946.55
2017-03-20T01:57:49.020Z,946.62
2017-03-20T01:58:49.009Z,946.58
2017-03-20T01:59:48.999Z,946.61
2017-03-20T02:00:48.989Z,946.53
2017-03-20T02:01:48.979Z,946.47
2017-03-20T02:02:48.969Z,946.46
2017-03-20T02:03:48.958Z,946.43
2017-03-20T02:04:48.946Z,946.44
2017-03-20T02:05:48.938Z,946.38
2017-03-20T02:06:48.927Z,946.43
2017-03-20T02:07:48.915Z,946.37
2017-03-20T02:08:48.905Z,946.41
2017-03-20T02:09:48.893Z,946.36
2017-03-20T02:10:48.884Z,946.37
2017-03-20T02:11:48.873Z,946.41
2017-03-20T02:12:48.862Z,946.39
2017-03-20T02:13:48.852Z,946.41
2017-03-20T02:14:48.842Z,946.44
2017-03-20T02:15:48.830Z,946.43
2017-03-20T02:16:48.821Z,946.47
2017-03-20T02:17:48.847Z,946.41
2017-03-20T02:18:48.800Z,946.39
2017-03-20T02:19:48.790Z,946.42
2017-03-20T02:20:48.777Z,946.41
2017-03-20T02:21:48.767Z,946.37
2017-03-20T02:22:48.756Z,946.35
2017-03-20T02:23:48.746Z,946.38
2017-03-20T02:24:48.736Z,946.34
2017-03-20T02:25:48.722Z,946.35
2017-03-20T02:26:48.714Z,946.39
2017-03-20T02:27:48.703Z,946.33
2017-03-20T02:28:48.694Z,946.37
2017-03-20T02:29:48.682Z,946.35
2017-03-20T02:30:48.670Z,946.35
2017-03-20T02:31:48.660Z,946.39
2017-03-20T02:32:48.651Z,946.38
2017-03-20T02:33:48.640Z,946.4
2017-03-20T02:34:48.630Z,946.37
2017-03-20T02:35:48.618Z,946.36
2017-03-20T02:36:48.607Z,946.39
2017-03-20T02:37:48.598Z,946.4
2017-03-20T02:38:48.587Z,946.43
2017-03-20T02:39:48.576Z,946.39
2017-03-20T02:40:48.566Z,946.43
2017-03-20T02:41:48.555Z,946.38
2017-03-20T02:42:48.544Z,946.39
2017-03-20T02:43:48.533Z,946.34
2017-03-20T02:44:48.524Z,946.4
2017-03-20T02:45:48.512Z,946.35
2017-03-20T02:46:48.501Z,946.4
2017-03-20T02:47:48.492Z,946.44
2017-03-20T02:48:48.482Z,946.39
2017-03-20T02:49:48.470Z,946.41
2017-03-20T02:50:48.460Z,946.45
2017-03-20T02:51:48.449Z,946.38
2017-03-20T02:52:48.440Z,946.35
2017-03-20T02:53:48.428Z,946.45
2017-03-20T02:54:48.417Z,946.41
2017-03-20T02:55:48.407Z,946.4
2017-03-20T02:56:48.398Z,946.42
2017-03-20T02:57:48.387Z,946.45
2017-03-20T02:58:48.375Z,946.48
2017-03-20T02:59:48.365Z,946.44
2017-03-20T03:00:48.356Z,946.48
2017-03-20T03:01:48.344Z,946.52
2017-03-20T03:02:48.335Z,946.49
2017-03-20T03:03:48.325Z,946.55
2017-03-20T03:04:48.312Z,946.57
2017-03-20T03:05:48.302Z,946.58
2017-03-20T03:06:48.292Z,946.6
2017-03-20T03:07:48.282Z,946.55
2017-03-20T03:08:48.271Z,946.65
2017-03-20T03:09:48.260Z,946.62
2017-03-20T03:10:48.250Z,946.63
2017-03-20T03:11:48.240Z,946.65
2017-03-20T03:12:48.228Z,946.67
2017-03-20T03:13:48.219Z,946.71
2017-03-20T03:14:48.208Z,946.71
2017-03-20T03:15:48.196Z,946.7
2017-03-20T03:16:48.186Z,946.73
2017-03-20T03:17:48.176Z,946.71
2017-03-20T03:18:48.168Z,946.75
2017-03-20T03:19:48.156Z,946.71
2017-03-20T03:20:48.144Z,946.75
2017-03-20T03:21:48.134Z,946.77
2017-03-20T03:22:48.126Z,946.74
2017-03-20T03:23:48.121Z,946.76
2017-03-20T03:24:48.104Z,946.79
2017-03-20T03:25:48.093Z,946.79
2017-03-20T03:26:48.082Z,946.77
2017-03-20T03:27:48.073Z,946.8
2017-03-20T03:28:48.074Z,946.78
2017-03-20T03:29:48.052Z,946.78
2017-03-20T03:30:48.039Z,946.72
2017-03-20T03:31:48.030Z,946.79
2017-03-20T03:32:48.063Z,946.82
2017-03-20T03:33:48.008Z,946.79
2017-03-20T03:34:48.000Z,946.77
2017-03-20T03:35:47.989Z,946.8
2017-03-20T03:36:48.011Z,946.85
2017-03-20T03:37:47.971Z,946.78
2017-03-20T03:38:47.957Z,946.81
2017-03-20T03:39:47.947Z,946.82
2017-03-20T03:40:47.936Z,946.8
2017-03-20T03:41:47.924Z,946.8
2017-03-20T03:42:47.923Z,946.77
2017-03-20T03:43:47.904Z,946.82
2017-03-20T03:44:47.893Z,946.8
2017-03-20T03:45:47.881Z,946.81
2017-03-20T03:46:47.872Z,946.8
2017-03-20T03:47:47.862Z,946.78
2017-03-20T03:48:47.852Z,946.79
2017-03-20T03:49:47.840Z,946.81
2017-03-20T03:50:47.829Z,946.78
2017-03-20T03:51:47.820Z,946.78
2017-03-20T03:52:47.808Z,946.81
2017-03-20T03:53:47.799Z,946.88
2017-03-20T03:54:47.787Z,946.83
2017-03-20T03:55:47.776Z,946.87
2017-03-20T03:56:47.765Z,946.87
2017-03-20T03:57:47.756Z,946.8
2017-03-20T03:58:47.746Z,946.83
2017-03-20T03:59:47.734Z,946.83
2017-03-20T04:00:47.724Z,946.89
2017-03-20T04:01:47.714Z,946.84
2017-03-20T04:02:47.703Z,946.84
2017-03-20T04:03:47.691Z,946.82
2017-03-20T04:04:47.681Z,946.87
2017-03-20T04:05:47.670Z,946.87
2017-03-20T04:06:47.659Z,946.84
2017-03-20T04:07:47.648Z,946.8
2017-03-20T04:08:47.638Z,946.8
2017-03-20T04:09:47.627Z,946.91
2017-03-20T04:10:47.614Z,946.89
2017-03-20T04:11:47.604Z,946.93
2017-03-20T04:12:47.598Z,946.85
2017-03-20T04:13:47.584Z,947.01
2017-03-20T04:14:47.571Z,946.93
2017-03-20T04:15:47.561Z,946.92
2017-03-20T04:16:47.550Z,946.96
2017-03-20T04:17:47.540Z,947
2017-03-20T04:18:47.528Z,946.94
2017-03-20T04:19:47.517Z,946.97
2017-03-20T04:20:47.507Z,947.01
2017-03-20T04:21:47.495Z,947.05
2017-03-20T04:22:47.486Z,947.02
2017-03-20T04:23:47.474Z,947.02
2017-03-20T04:24:47.464Z,947.04
2017-03-20T04:25:47.451Z,947.08
2017-03-20T04:26:47.441Z,947.06
2017-03-20T04:27:47.431Z,947.07
2017-03-20T04:28:47.419Z,946.85
2017-03-20T04:29:47.407Z,947.07
2017-03-20T04:30:47.397Z,947.07
2017-03-20T04:31:47.386Z,947.06
2017-03-20T04:32:47.374Z,947.05
2017-03-20T04:33:47.364Z,947.05
2017-03-20T04:34:47.352Z,947.08
2017-03-20T04:35:47.342Z,947.07
2017-03-20T04:36:47.329Z,947.1
2017-03-20T04:37:47.320Z,947.1
2017-03-20T04:38:47.307Z,947.11
2017-03-20T04:39:47.299Z,947.08
2017-03-20T04:40:47.287Z,947.11
2017-03-20T04:41:47.276Z,947.03
2017-03-20T04:42:47.266Z,947.08
2017-03-20T04:43:47.253Z,947.1
2017-03-20T04:44:47.241Z,947.02
2017-03-20T04:45:47.231Z,947.07
2017-03-20T04:46:47.220Z,947.1
2017-03-20T04:47:47.209Z,947.06
2017-03-20T04:48:47.197Z,947.09
2017-03-20T04:49:47.187Z,947.02
2017-03-20T04:50:47.175Z,947.09
2017-03-20T04:51:47.164Z,947.09
2017-03-20T04:52:47.154Z,947.12
2017-03-20T04:53:47.143Z,947.18
2017-03-20T04:54:47.132Z,947.21
2017-03-20T04:55:47.121Z,947.22
2017-03-20T04:56:47.111Z,947.26
2017-03-20T04:57:47.099Z,947.26
2017-03-20T04:58:47.089Z,947.26
2017-03-20T04:59:47.077Z,947.24
2017-03-20T05:00:47.067Z,947.27
2017-03-20T05:01:47.055Z,947.23
2017-03-20T05:02:47.046Z,947.24
2017-03-20T05:03:47.040Z,947.25
2017-03-20T05:04:47.024Z,947.27
2017-03-20T05:05:47.011Z,947.28
2017-03-20T05:06:47.002Z,947.29
2017-03-20T05:07:46.990Z,947.27
2017-03-20T05:08:46.979Z,947.32
2017-03-20T05:09:46.968Z,947.34
2017-03-20T05:10:46.957Z,947.32
2017-03-20T05:11:46.946Z,947.3
2017-03-20T05:12:46.935Z,947.25
2017-03-20T05:13:46.925Z,947.26
2017-03-20T05:14:46.913Z,947.24
2017-03-20T05:15:46.902Z,947.29
2017-03-20T05:16:46.892Z,947.29
2017-03-20T05:17:46.881Z,947.21
2017-03-20T05:18:46.870Z,947.26
2017-03-20T05:19:46.857Z,947.3
2017-03-20T05:20:46.847Z,947.31
2017-03-20T05:21:46.836Z,947.29
2017-03-20T05:22:46.826Z,947.31
2017-03-20T05:23:46.813Z,947.29
2017-03-20T05:24:46.803Z,947.3
2017-03-20T05:25:46.792Z,947.47
2017-03-20T05:26:46.780Z,947.32
2017-03-20T05:27:46.769Z,947.35
2017-03-20T05:28:46.758Z,947.42
2017-03-20T05:29:46.749Z,947.43
2017-03-20T05:30:46.737Z,947.43
2017-03-20T05:31:46.726Z,947.42
2017-03-20T05:32:46.715Z,947.44
2017-03-20T05:33:46.705Z,947.5
2017-03-20T05:34:46.694Z,947.48
2017-03-20T05:35:46.681Z,947.46
2017-03-20T05:36:46.671Z,947.49
2017-03-20T05:37:46.663Z,947.49
2017-03-20T05:38:46.649Z,947.54
2017-03-20T05:39:46.637Z,947.46
2017-03-20T05:40:46.628Z,947.53
2017-03-20T05:41:46.616Z,947.49
2017-03-20T05:42:46.606Z,947.5
2017-03-20T05:43:46.595Z,947.47
2017-03-20T05:44:46.584Z,947.51
2017-03-20T05:45:46.574Z,947.45
2017-03-20T05:46:46.561Z,947.46
2017-03-20T05:47:46.552Z,947.54
2017-03-20T05:48:46.541Z,947.51
2017-03-20T05:49:46.530Z,947.54
2017-03-20T05:50:46.518Z,947.53
2017-03-20T05:51:46.507Z,947.51
2017-03-20T05:52:46.497Z,947.58
2017-03-20T05:53:46.486Z,947.59
2017-03-20T05:54:46.475Z,947.58
2017-03-20T05:55:46.463Z,947.61
2017-03-20T05:56:46.453Z,947.63
2017-03-20T05:57:46.442Z,947.64
2017-03-20T05:58:46.432Z,947.52
2017-03-20T05:59:46.427Z,947.56
2017-03-20T06:00:46.410Z,947.56
2017-03-20T06:01:46.400Z,947.52
2017-03-20T06:02:46.389Z,947.56
2017-03-20T06:03:46.378Z,947.56
2017-03-20T06:04:46.366Z,947.49
2017-03-20T06:05:46.356Z,947.47
2017-03-20T06:06:46.346Z,947.53
2017-03-20T06:07:46.335Z,947.54
2017-03-20T06:08:46.324Z,947.57
2017-03-20T06:09:46.312Z,947.49
2017-03-20T06:10:46.303Z,947.49
2017-03-20T06:11:46.291Z,947.52
2017-03-20T06:12:46.283Z,947.49
2017-03-20T06:13:46.270Z,947.48
2017-03-20T06:14:46.260Z,947.5
2017-03-20T06:15:46.250Z,947.49
2017-03-20T06:16:46.240Z,947.44
2017-03-20T06:17:46.228Z,947.5
2017-03-20T06:18:46.217Z,947.51
2017-03-20T06:19:46.207Z,947.48
2017-03-20T06:20:46.197Z,947.49
2017-03-20T06:21:46.186Z,947.47
2017-03-20T06:22:46.176Z,947.51
2017-03-20T06:23:46.166Z,947.54
2017-03-20T06:24:46.156Z,947.5
2017-03-20T06:25:46.143Z,947.54
2017-03-20T06:26:46.133Z,947.6
2017-03-20T06:27:46.124Z,947.66
2017-03-20T06:28:46.113Z,947.63
2017-03-20T06:29:46.102Z,947.62
2017-03-20T06:30:46.091Z,947.6
2017-03-20T06:31:46.080Z,947.55
2017-03-20T06:32:46.069Z,947.59
2017-03-20T06:33:46.062Z,947.59
2017-03-20T06:34:46.051Z,947.6
2017-03-20T06:35:46.040Z,947.66
2017-03-20T06:36:46.030Z,947.61
2017-03-20T06:37:46.019Z,947.63
2017-03-20T06:38:46.010Z,947.57
2017-03-20T06:39:46.000Z,947.58
2017-03-20T06:40:45.987Z,947.62
2017-03-20T06:41:45.978Z,947.56
2017-03-20T06:42:45.969Z,947.57
2017-03-20T06:43:45.957Z,947.59
2017-03-20T06:44:45.948Z,947.66
2017-03-20T06:45:45.937Z,947.62
2017-03-20T06:46:45.928Z,947.73
2017-03-20T06:47:45.917Z,947.75
2017-03-20T06:48:45.907Z,947.77
2017-03-20T06:49:45.898Z,947.67
2017-03-20T06:50:45.888Z,947.79
2017-03-20T06:51:45.877Z,947.74
2017-03-20T06:52:45.869Z,947.74
2017-03-20T06:53:45.858Z,947.78
2017-03-20T06:54:45.846Z,947.8
2017-03-20T06:55:45.837Z,947.79
2017-03-20T06:56:45.828Z,947.8
2017-03-20T06:57:45.817Z,947.86
2017-03-20T06:58:45.807Z,947.85
2017-03-20T06:59:45.803Z,947.85
2017-03-20T07:00:45.788Z,947.87
2017-03-20T07:01:45.779Z,947.88
2017-03-20T07:02:45.769Z,947.89
2017-03-20T07:03:45.759Z,947.9
2017-03-20T07:04:45.749Z,947.82
2017-03-20T07:05:45.736Z,947.89
2017-03-20T07:06:45.728Z,947.87
2017-03-20T07:07:45.718Z,947.82
2017-03-20T07:08:45.709Z,947.82
2017-03-20T07:09:45.699Z,947.79
2017-03-20T07:10:45.692Z,947.82
2017-03-20T07:11:45.679Z,947.77
2017-03-20T07:12:45.670Z,947.79
2017-03-20T07:13:45.659Z,947.79
2017-03-20T07:14:45.648Z,947.8
2017-03-20T07:15:45.639Z,947.81
2017-03-20T07:16:45.628Z,947.73
2017-03-20T07:17:45.619Z,947.81
2017-03-20T07:18:45.611Z,947.78
2017-03-20T07:19:45.599Z,947.81
2017-03-20T07:20:45.589Z,947.76
2017-03-20T07:21:45.579Z,947.74
2017-03-20T07:22:45.570Z,947.77
2017-03-20T07:23:45.559Z,947.74
2017-03-20T07:24:45.548Z,947.75
2017-03-20T07:25:45.539Z,947.85
2017-03-20T07:26:45.530Z,947.78
2017-03-20T07:27:45.520Z,947.79
2017-03-20T07:28:45.510Z,947.75
2017-03-20T07:29:45.502Z,947.75
2017-03-20T07:30:45.491Z,947.78
2017-03-20T07:31:45.483Z,947.82
2017-03-20T07:32:45.474Z,947.79
2017-03-20T07:33:45.465Z,947.92
2017-03-20T07:34:45.457Z,947.91
2017-03-20T07:35:45.445Z,947.81
2017-03-20T07:36:45.443Z,947.89
2017-03-20T07:37:45.432Z,947.84
2017-03-20T07:38:45.418Z,947.78
2017-03-20T07:39:45.410Z,947.82
2017-03-20T07:40:45.401Z,947.83
2017-03-20T07:41:45.393Z,947.8
2017-03-20T07:42:45.384Z,947.81
2017-03-20T07:43:45.376Z,947.9
2017-03-20T07:44:45.364Z,947.76
2017-03-20T07:45:45.358Z,947.86
2017-03-20T07:46:45.348Z,947.92
2017-03-20T07:47:45.339Z,947.87
2017-03-20T07:48:45.331Z,947.93
2017-03-20T07:49:45.321Z,947.82
2017-03-20T07:50:45.348Z,947.73
2017-03-20T07:51:45.303Z,947.75
2017-03-20T07:52:45.295Z,947.75
2017-03-20T07:53:45.284Z,947.79
2017-03-20T07:54:45.276Z,947.75
2017-03-20T07:55:45.267Z,947.81
2017-03-20T07:56:45.258Z,947.76
2017-03-20T07:57:45.249Z,947.85
2017-03-20T07:58:45.239Z,947.84
2017-03-20T07:59:45.230Z,947.89
2017-03-20T08:00:45.221Z,947.94
2017-03-20T08:01:45.213Z,947.92
2017-03-20T08:02:45.205Z,947.91
2017-03-20T08:03:45.195Z,947.87
2017-03-20T08:04:45.189Z,948
2017-03-20T08:05:45.175Z,947.87
2017-03-20T08:06:45.169Z,947.88
2017-03-20T08:07:45.161Z,947.84
2017-03-20T08:08:45.151Z,947.83
2017-03-20T08:09:45.142Z,947.85
2017-03-20T08:10:45.131Z,947.84
2017-03-20T08:11:45.126Z,947.85
2017-03-20T08:12:45.114Z,947.8
2017-03-20T08:13:45.105Z,947.77
2017-03-20T08:14:45.097Z,947.77
2017-03-20T08:15:45.086Z,947.72
2017-03-20T08:16:45.076Z,947.82
2017-03-20T08:17:45.067Z,947.77
2017-03-20T08:18:45.058Z,947.77
2017-03-20T08:19:45.048Z,947.81
2017-03-20T08:20:45.038Z,947.8
2017-03-20T08:21:45.032Z,947.83
2017-03-20T08:22:45.020Z,947.79
2017-03-20T08:23:45.010Z,947.78
2017-03-20T08:24:45.002Z,947.86
2017-03-20T08:25:44.992Z,947.78
2017-03-20T08:26:44.983Z,947.86
2017-03-20T08:27:44.975Z,947.9
2017-03-20T08:28:44.965Z,947.9
2017-03-20T08:29:44.956Z,947.86
2017-03-20T08:30:44.946Z,947.9
2017-03-20T08:31:44.938Z,947.85
2017-03-20T08:32:44.928Z,947.89
2017-03-20T08:33:44.920Z,947.93
2017-03-20T08:34:44.911Z,947.93
2017-03-20T08:35:44.901Z,947.88
2017-03-20T08:36:44.893Z,947.92
2017-03-20T08:37:44.882Z,947.95
2017-03-20T08:38:44.874Z,947.9
2017-03-20T08:39:44.864Z,947.9
2017-03-20T08:40:44.855Z,947.88
2017-03-20T08:41:44.844Z,947.89
2017-03-20T08:42:44.836Z,947.9
2017-03-20T08:43:44.827Z,947.89
2017-03-20T08:44:44.818Z,947.91
2017-03-20T08:45:44.809Z,947.89
2017-03-20T08:46:44.800Z,947.79
2017-03-20T08:47:44.791Z,947.8
2017-03-20T08:48:44.782Z,947.85
2017-03-20T08:49:44.771Z,947.82
2017-03-20T08:50:44.763Z,947.78
2017-03-20T08:51:44.753Z,947.79
2017-03-20T08:52:44.745Z,947.77
2017-03-20T08:53:44.735Z,947.82
2017-03-20T08:54:44.726Z,947.81
2017-03-20T08:55:44.716Z,947.71
2017-03-20T08:56:44.706Z,947.83
2017-03-20T08:57:44.700Z,947.88
2017-03-20T08:58:44.690Z,947.95
2017-03-20T08:59:44.680Z,947.89
2017-03-20T09:00:44.708Z,947.94
2017-03-20T09:01:44.663Z,947.95
2017-03-20T09:02:44.652Z,947.91
2017-03-20T09:03:44.643Z,948
2017-03-20T09:04:44.637Z,947.91
2017-03-20T09:05:44.628Z,948.01
2017-03-20T09:06:44.617Z,948
2017-03-20T09:07:44.609Z,947.99
2017-03-20T09:08:44.599Z,948.05
2017-03-20T09:09:44.591Z,948.04
2017-03-20T09:10:44.582Z,948.15
2017-03-20T09:11:44.572Z,948.07
2017-03-20T09:12:44.565Z,948.05
2017-03-20T09:13:44.557Z,948.06
2017-03-20T09:14:44.544Z,948.04
2017-03-20T09:15:44.537Z,948.06
2017-03-20T09:16:44.530Z,948.14
2017-03-20T09:17:44.518Z,948.15
2017-03-20T09:18:44.509Z,948.1
2017-03-20T09:19:44.500Z,948.04
2017-03-20T09:20:44.492Z,948.12
2017-03-20T09:21:44.482Z,948.14
2017-03-20T09:22:44.474Z,948.13
2017-03-20T09:23:44.465Z,948.05
2017-03-20T09:24:44.455Z,948.13
2017-03-20T09:25:44.447Z,948.09
2017-03-20T09:26:44.438Z,948.13
2017-03-20T09:27:44.429Z,948.12
2017-03-20T09:28:44.420Z,948.07
2017-03-20T09:29:44.411Z,948.07
2017-03-20T09:30:44.402Z,948.07
2017-03-20T09:31:44.393Z,948.08
2017-03-20T09:32:44.384Z,948.12
2017-03-20T09:33:44.377Z,948.1
2017-03-20T09:34:44.368Z,948.12
2017-03-20T09:35:44.358Z,948.05
2017-03-20T09:36:44.348Z,948.07
2017-03-20T09:37:44.342Z,948.07
2017-03-20T09:38:44.333Z,948.01
2017-03-20T09:39:44.322Z,948.07
2017-03-20T09:40:44.314Z,948.01
2017-03-20T09:41:44.306Z,948.07
2017-03-20T09:42:44.298Z,948.07
2017-03-20T09:43:44.290Z,948.05
2017-03-20T09:44:44.280Z,948.05
2017-03-20T09:45:44.272Z,948.02
2017-03-20T09:46:44.264Z,948.03
2017-03-20T09:47:44.255Z,948.03
2017-03-20T09:48:44.247Z,948.03
2017-03-20T09:49:44.238Z,948.04
2017-03-20T09:50:44.229Z,948.01
2017-03-20T09:51:44.221Z,947.95
2017-03-20T09:52:44.213Z,947.97
2017-03-20T09:53:44.203Z,948.01
2017-03-20T09:54:44.195Z,948.02
2017-03-20T09:55:44.187Z,947.98
2017-03-20T09:56:44.179Z,948.05
2017-03-20T09:57:44.171Z,948.08
2017-03-20T09:58:44.162Z,948.07
2017-03-20T09:59:44.154Z,947.99
2017-03-20T10:00:44.146Z,948.03
2017-03-20T10:01:44.138Z,948.04
2017-03-20T10:02:44.129Z,948.09
2017-03-20T10:03:44.121Z,947.96
2017-03-20T10:04:44.111Z,947.96
2017-03-20T10:05:44.103Z,947.96
2017-03-20T10:06:44.096Z,947.94
2017-03-20T10:07:44.086Z,947.97
2017-03-20T10:08:44.079Z,947.91
2017-03-20T10:09:44.071Z,947.99
2017-03-20T10:10:44.062Z,948.05
2017-03-20T10:11:44.053Z,947.96
2017-03-20T10:12:44.045Z,947.93
2017-03-20T10:13:44.036Z,947.89
2017-03-20T10:14:44.027Z,947.85
2017-03-20T10:15:44.020Z,947.82
2017-03-20T10:16:44.012Z,947.82
2017-03-20T10:17:44.004Z,947.82
2017-03-20T10:18:43.995Z,947.79
2017-03-20T10:19:43.987Z,947.83
2017-03-20T10:20:43.977Z,947.8
2017-03-20T10:21:43.971Z,947.8
2017-03-20T10:22:43.963Z,947.82
2017-03-20T10:23:43.956Z,947.84
2017-03-20T10:24:43.946Z,947.81
2017-03-20T10:25:43.939Z,947.84
2017-03-20T10:26:43.931Z,947.81
2017-03-20T10:27:43.923Z,947.94
2017-03-20T10:28:43.917Z,947.83
2017-03-20T10:29:43.908Z,947.93
2017-03-20T10:30:43.900Z,947.92
2017-03-20T10:31:43.893Z,947.87
2017-03-20T10:32:43.886Z,947.89
2017-03-20T10:33:43.879Z,947.86
2017-03-20T10:34:43.869Z,947.91
2017-03-20T10:35:43.861Z,947.87
2017-03-20T10:36:43.854Z,947.92
2017-03-20T10:37:43.845Z,947.91
2017-03-20T10:38:43.839Z,947.87
2017-03-20T10:39:43.831Z,947.89
2017-03-20T10:40:43.825Z,947.91
2017-03-20T10:41:43.815Z,947.81
2017-03-20T10:42:43.809Z,947.83
2017-03-20T10:43:43.801Z,947.81
2017-03-20T10:44:43.793Z,947.76
2017-03-20T10:45:43.785Z,947.75
2017-03-20T10:46:43.777Z,947.82
2017-03-20T10:47:43.772Z,947.79
2017-03-20T10:48:43.764Z,947.81
2017-03-20T10:49:43.757Z,947.83
2017-03-20T10:50:43.749Z,947.85
2017-03-20T10:51:43.742Z,947.82
2017-03-20T10:52:43.734Z,947.92
2017-03-20T10:53:43.727Z,947.87
2017-03-20T10:54:43.721Z,947.87
2017-03-20T10:55:43.713Z,947.89
2017-03-20T10:56:43.704Z,947.91
2017-03-20T10:57:43.699Z,947.86
2017-03-20T10:58:43.692Z,947.85
2017-03-20T10:59:43.683Z,947.8
2017-03-20T11:00:43.677Z,947.87
2017-03-20T11:01:43.670Z,947.83
2017-03-20T11:02:43.665Z,947.8
2017-03-20T11:03:43.657Z,947.77
2017-03-20T11:04:43.649Z,947.75
2017-03-20T11:05:43.643Z,947.79
2017-03-20T11:06:43.636Z,947.76
2017-03-20T11:07:43.629Z,947.85
2017-03-20T11:08:43.626Z,947.78
2017-03-20T11:09:43.617Z,947.82
2017-03-20T11:10:43.607Z,947.83
2017-03-20T11:11:43.601Z,947.83
2017-03-20T11:12:43.595Z,947.75
2017-03-20T11:13:43.594Z,947.75
2017-03-20T11:14:43.582Z,947.74
2017-03-20T11:15:43.575Z,947.73
2017-03-20T11:16:43.568Z,947.83
2017-03-20T11:17:43.562Z,947.8
2017-03-20T11:18:43.555Z,947.82
2017-03-20T11:19:43.549Z,947.83
2017-03-20T11:20:43.542Z,947.82
2017-03-20T11:21:43.535Z,947.84
2017-03-20T11:22:43.526Z,947.81
2017-03-20T11:23:43.526Z,947.78
2017-03-20T11:24:43.513Z,947.77
2017-03-20T11:25:43.507Z,947.8
2017-03-20T11:26:43.502Z,947.77
2017-03-20T11:27:43.494Z,947.81
2017-03-20T11:28:43.487Z,947.93
2017-03-20T11:29:43.480Z,947.86
2017-03-20T11:30:43.504Z,947.85
2017-03-20T11:31:43.466Z,947.8
2017-03-20T11:32:43.460Z,947.85
2017-03-20T11:33:43.453Z,947.79
2017-03-20T11:34:43.446Z,947.8
2017-03-20T11:35:43.440Z,947.78
2017-03-20T11:36:43.433Z,947.78
2017-03-20T11:37:43.427Z,947.77
2017-03-20T11:38:43.420Z,947.77
2017-03-20T11:39:43.411Z,947.82
2017-03-20T11:40:43.405Z,947.77
2017-03-20T11:41:43.398Z,947.75
2017-03-20T11:42:43.396Z,947.71
2017-03-20T11:43:43.386Z,947.76
2017-03-20T11:44:43.379Z,947.72
2017-03-20T11:45:43.372Z,947.74
2017-03-20T11:46:43.364Z,947.71
2017-03-20T11:47:43.359Z,947.69
2017-03-20T11:48:43.350Z,947.66
2017-03-20T11:49:43.345Z,947.67
2017-03-20T11:50:43.338Z,947.68
2017-03-20T11:51:43.331Z,947.6
2017-03-20T11:52:43.324Z,947.71
2017-03-20T11:53:43.318Z,947.62
2017-03-20T11:54:43.312Z,947.69
2017-03-20T11:55:43.307Z,947.62
2017-03-20T11:56:43.299Z,947.58
2017-03-20T11:57:43.292Z,947.57
2017-03-20T11:58:43.287Z,947.6
2017-03-20T11:59:43.280Z,947.54
2017-03-20T12:00:43.274Z,947.56
2017-03-20T12:01:43.268Z,947.46
2017-03-20T12:02:43.259Z,947.49
2017-03-20T12:03:43.255Z,947.47
2017-03-20T12:04:43.249Z,947.51
2017-03-20T12:05:43.242Z,947.56
2017-03-20T12:06:43.239Z,947.58
2017-03-20T12:07:43.230Z,947.48
2017-03-20T12:08:43.225Z,947.45
2017-03-20T12:09:43.218Z,947.45
2017-03-20T12:10:43.211Z,947.4
2017-03-20T12:11:43.206Z,947.4
2017-03-20T12:12:43.200Z,947.45
2017-03-20T12:13:43.194Z,947.37
2017-03-20T12:14:43.191Z,947.38
2017-03-20T12:15:43.184Z,947.32
2017-03-20T12:16:43.178Z,947.32
2017-03-20T12:17:43.174Z,947.35
2017-03-20T12:18:43.166Z,947.37
2017-03-20T12:19:43.162Z,947.35
2017-03-20T12:20:43.155Z,947.37
2017-03-20T12:21:43.151Z,947.34
2017-03-20T12:22:43.147Z,947.29
2017-03-20T12:23:43.140Z,947.37
2017-03-20T12:24:43.135Z,947.31
2017-03-20T12:25:43.128Z,947.35
2017-03-20T12:26:43.125Z,947.3
2017-03-20T12:27:43.119Z,947.42
2017-03-20T12:28:43.114Z,947.38
2017-03-20T12:29:43.108Z,947.41
2017-03-20T12:30:43.103Z,947.35
2017-03-20T12:31:43.097Z,947.36